Stations météo

réclame
Mon MeteoGroup
Nieuw Beerta aws, Pays-Bas (6286): Température de l'air & dewpoint: 17.05.2018 22:00:00 - 23.05.2018 22:00:00 (CEST)Nieuw Beerta aws, Pays-Bas (6286): Température de l'air 5cm & Température de l'air -5cm: 17.05.2018 22:00:00 - 23.05.2018 22:00:00 (CEST)Nieuw Beerta aws, Pays-Bas (6286): Température de l'air -20cm & Température de l'air -100cm: 17.05.2018 22:00:00 - 23.05.2018 22:00:00 (CEST)Nieuw Beerta aws, Pays-Bas (6286): Vitesse du vent & gusts: 17.05.2018 22:00:00 - 23.05.2018 22:00:00 (CEST)Nieuw Beerta aws, Pays-Bas (6286): Direction du vent: 17.05.2018 22:00:00 - 23.05.2018 22:00:00 (CEST)Nieuw Beerta aws, Pays-Bas (6286): Quantités de précipitations: 17.05.2018 22:00:00 - 23.05.2018 22:00:00 (CEST)
Date & Time tt [°C] td [°C] tt 5cm [°C] tt -5cm [°C] tt -20cm [°C] tt -100cm [°C] ff [km/h] ff [knt] fx [km/h] fx [knt] dd rr [mm]
23.05.2018 22:00:00 16,1 11,2 15,8 18,3 17,6 12,6 18 10 22 12 NE 0,0
23.05.2018 21:00:00 17,9 12,7 17,8 18,8 17,6 12,6 18 10 29 16 NNE 0,0
23.05.2018 20:00:00 19,9 12,7 20,3 19,3 17,6 12,6 18 10 32 18 NNE 0,0
23.05.2018 19:00:00 22,7 8,6 23,4 19,6 17,5 12,6 22 12 32 18 NE 0,0
23.05.2018 18:00:00 22,9 10,4 23,4 19,9 17,4 12,6 22 12 32 18 NE 0,0
23.05.2018 17:00:00 24,0 9,7 24,5 20,2 17,3 12,6 25 14 40 21 ENE 0,0
23.05.2018 16:00:00 22,7 10,6 23,8 20,4 17,1 12,6 22 12 32 18 NE 0,0
23.05.2018 15:00:00 24,4 9,6 25,3 20,4 16,8 12,6 22 12 32 18 ENE 0,0
23.05.2018 14:00:00 24,9 10,0 26,7 20,0 16,6 12,6 22 12 32 18 E 0,0
23.05.2018 13:00:00 23,8 10,7 25,2 19,5 16,4 12,6 22 12 29 16 ENE 0,0
23.05.2018 12:00:00 22,2 10,5 23,9 18,6 16,2 12,6 18 10 29 16 ENE 0,0
23.05.2018 11:00:00 21,0 11,9 22,7 17,8 16,1 12,6 18 10 29 16 ENE 0,0
23.05.2018 10:00:00 19,6 11,6 20,9 17,0 16,1 12,6 18 10 25 14 ENE 0,0
23.05.2018 09:00:00 16,9 11,8 17,5 16,5 16,1 12,6 14 8 22 12 ENE 0,0
23.05.2018 08:00:00 15,7 11,6 16,2 16,1 16,1 12,6 14 8 18 10 NNE 0,0
23.05.2018 07:00:00 14,6 11,5 14,5 16,0 16,2 12,6 11 6 14 8 NNE 0,0
23.05.2018 06:00:00 14,0 11,0 13,6 16,0 16,3 12,6 7 4 14 8 ENE 0,0
23.05.2018 05:00:00 13,9 11,3 13,4 16,1 16,3 12,6 7 4 11 6 ENE 0,0
23.05.2018 04:00:00 14,1 11,4 13,6 16,3 16,4 12,6 7 4 11 6 NE 0,0
23.05.2018 03:00:00 14,2 12,7 14,0 16,4 16,5 12,6 11 6 14 8 NNE 0,0
23.05.2018 02:00:00 14,9 13,4 14,3 16,5 16,6 12,5 7 4 7 4 N 0,0
23.05.2018 01:00:00 14,4 12,8 13,8 16,7 16,7 12,5 7 4 11 6 NNE 0,0
23.05.2018 00:00:00 13,7 12,4 13,8 16,9 16,7 12,5 11 6 11 6 NE 0,0
22.05.2018 23:00:00 15,3 11,9 14,5 17,3 16,8 12,5 7 4 11 6 E 0,0
22.05.2018 22:00:00 16,7 12,2 15,9 17,7 16,8 12,5 4 2 22 12 ESE 0,0
22.05.2018 21:00:00 19,7 10,0 19,6 18,2 16,8 12,5 18 10 32 18 E 0,0
22.05.2018 20:00:00 19,6 11,5 19,8 18,5 16,8 12,5 22 12 36 19 NNE 0,0
22.05.2018 19:00:00 20,7 12,0 21,6 18,9 16,6 12,5 25 14 36 19 NNE 0,0
22.05.2018 18:00:00 22,4 13,3 23,5 19,0 16,5 12,5 11 6 14 8 NE 0,0
22.05.2018 17:00:00 22,5 11,5 23,1 19,1 16,3 12,5 11 6 22 12 ENE 0,0
22.05.2018 16:00:00 22,5 10,7 23,9 19,2 16,1 12,5 14 8 32 18 ENE 0,0
22.05.2018 15:00:00 21,7 11,3 23,3 18,5 15,9 12,5 14 8 22 12 ENE 0,0
22.05.2018 14:00:00 21,7 9,7 22,6 18,2 15,7 12,5 14 8 29 16 E 0,0
22.05.2018 13:00:00 22,4 8,4 24,8 17,4 15,6 12,5 22 12 32 18 E 0,0
22.05.2018 12:00:00 20,4 10,8 21,5 16,5 15,5 12,5 18 10 25 14 ENE 0,0
22.05.2018 11:00:00 18,9 10,7 19,4 16,2 15,4 12,5 14 8 22 12 E 0,0
22.05.2018 10:00:00 18,2 11,4 19,3 15,6 15,4 12,5 14 8 22 12 ENE 0,0
22.05.2018 09:00:00 16,1 10,4 16,5 15,0 15,4 12,5 11 6 22 12 E 0,0
22.05.2018 08:00:00 15,1 10,0 15,2 14,7 15,5 12,5 14 8 18 10 E 0,0
22.05.2018 07:00:00 11,8 8,9 11,3 14,6 15,6 12,5 11 6 14 8 E 0,0
22.05.2018 06:00:00 10,6 8,2 9,8 14,7 15,7 12,5 11 6 14 8 E 0,0
22.05.2018 05:00:00 10,5 7,8 10,1 14,9 15,9 12,5 14 8 18 10 E 0,0
22.05.2018 04:00:00 11,4 8,5 11,0 15,1 16,0 12,5 14 8 22 12 ENE 0,0
22.05.2018 03:00:00 11,8 8,7 11,2 15,3 16,1 12,5 14 8 22 12 ENE 0,0
22.05.2018 02:00:00 12,2 7,8 10,9 15,5 16,3 12,5 14 8 18 10 ENE 0,0
22.05.2018 01:00:00 12,6 7,5 10,9 15,8 16,4 12,5 14 8 14 8 E 0,0
22.05.2018 00:00:00 12,4 8,0 10,9 16,2 16,6 12,5 11 6 14 8 ENE 0,0
21.05.2018 23:00:00 12,9 7,9 11,5 16,7 16,7 12,5 11 6 14 8 ENE 0,0
21.05.2018 22:00:00 15,6 8,2 13,4 17,3 16,7 12,5 7 4 11 6 E 0,0
21.05.2018 21:00:00 18,0 8,7 16,9 17,8 16,7 12,5 11 6 18 10 E 0,0
21.05.2018 20:00:00 21,1 8,4 21,0 18,3 16,7 12,5 18 10 32 18 E 0,0
21.05.2018 19:00:00 22,4 8,5 23,0 18,7 16,6 12,5 18 10 32 18 E 0,0
21.05.2018 18:00:00 23,2 7,3 24,2 19,2 16,4 12,5 25 14 36 19 E 0,0
21.05.2018 17:00:00 23,6 6,5 24,9 19,3 16,2 12,5 22 12 40 21 E 0,0
21.05.2018 16:00:00 23,2 6,0 25,2 19,4 16,0 12,5 25 14 36 19 E 0,0
21.05.2018 15:00:00 22,9 6,6 25,0 19,1 15,7 12,5 25 14 40 21 ESE 0,0
21.05.2018 14:00:00 22,5 7,0 24,8 18,6 15,4 12,5 25 14 36 19 E 0,0
21.05.2018 13:00:00 22,1 7,6 24,2 17,7 15,2 12,5 25 14 40 21 ESE 0,0
21.05.2018 12:00:00 21,1 8,3 23,3 16,7 15,1 12,5 25 14 40 21 E 0,0
21.05.2018 11:00:00 20,1 9,5 21,8 15,7 15,0 12,5 29 16 43 23 E 0,0
21.05.2018 10:00:00 18,6 9,0 19,6 14,8 15,0 12,5 29 16 40 21 E 0,0
21.05.2018 09:00:00 16,4 8,5 17,1 14,3 15,1 12,5 18 10 25 14 E 0,0
21.05.2018 08:00:00 13,7 7,3 14,0 14,0 15,2 12,5 14 8 25 14 E 0,0
21.05.2018 07:00:00 11,6 6,2 11,1 14,0 15,3 12,5 11 6 18 10 E 0,0
21.05.2018 06:00:00 8,9 5,5 8,2 14,1 15,5 12,5 14 8 14 8 E 0,0
21.05.2018 05:00:00 8,0 5,7 7,6 14,3 15,6 12,5 14 8 18 10 ENE 0,0
21.05.2018 04:00:00 9,6 6,2 9,2 14,6 15,8 12,5 14 8 22 12 E 0,0
21.05.2018 03:00:00 10,3 5,7 9,4 14,9 15,9 12,5 14 8 22 12 E 0,0
21.05.2018 02:00:00 9,9 5,8 9,1 15,2 16,1 12,5 14 8 18 10 E 0,0
21.05.2018 01:00:00 10,7 6,3 9,7 15,5 16,3 12,5 11 6 18 10 E 0,0
21.05.2018 00:00:00 10,3 6,2 9,4 16,0 16,4 12,5 14 8 14 8 ENE 0,0
20.05.2018 23:00:00 12,2 6,3 9,9 16,5 16,5 12,5 11 6 11 6 E 0,0
20.05.2018 22:00:00 12,9 7,1 11,1 17,1 16,6 12,5 11 6 14 8 ENE 0,0
20.05.2018 21:00:00 16,2 7,6 15,5 17,7 16,7 12,5 14 8 18 10 ENE 0,0
20.05.2018 20:00:00 19,7 7,6 19,7 18,3 16,6 12,4 14 8 22 12 ENE 0,0
20.05.2018 19:00:00 21,7 6,1 22,2 18,8 16,6 12,4 18 10 29 16 E 0,0
20.05.2018 18:00:00 22,4 6,4 23,3 19,3 16,4 12,5 18 10 29 16 ENE 0,0
20.05.2018 17:00:00 22,6 7,4 23,6 19,6 16,2 12,5 22 12 32 18 ENE 0,0
20.05.2018 16:00:00 22,7 8,7 24,4 19,8 15,9 12,5 18 10 32 18 E 0,0
20.05.2018 15:00:00 22,2 8,2 24,3 19,6 15,6 12,5 18 10 36 19 E 0,0
20.05.2018 14:00:00 22,1 9,7 24,3 19,1 15,3 12,5 14 8 25 14 SE 0,0
20.05.2018 13:00:00 20,8 11,4 23,6 18,2 15,0 12,5 11 6 25 14 ESE 0,0
20.05.2018 12:00:00 19,1 11,8 21,8 17,1 14,8 12,5 14 8 25 14 E 0,0
20.05.2018 11:00:00 18,2 12,1 20,3 16,0 14,7 12,5 14 8 22 12 E 0,0
20.05.2018 10:00:00 17,1 12,2 19,1 14,9 14,6 12,5 14 8 18 10 ESE 0,0
20.05.2018 09:00:00 15,1 12,2 16,0 14,2 14,6 12,5 7 4 14 8 ESE 0,0
20.05.2018 08:00:00 11,2 11,1 10,9 13,8 14,7 12,5 4 2 7 4 E 0,0
20.05.2018 07:00:00 8,6 8,6 9,0 13,8 14,8 12,5 0 0 4 2 N 0,0
20.05.2018 06:00:00 8,3 8,3 7,9 13,8 15,0 12,5 0 0 4 2 N 0,0
20.05.2018 05:00:00 8,8 8,8 6,8 14,1 15,1 12,5 4 2 11 6 ENE 0,0
20.05.2018 04:00:00 9,3 9,3 8,0 14,5 15,2 12,5 7 4 11 6 NNE 0,0
20.05.2018 03:00:00 11,0 10,9 11,1 14,7 15,3 12,5 7 4 11 6 NE 0,0
20.05.2018 02:00:00 10,0 9,8 9,9 14,8 15,4 12,5 7 4 11 6 NNE 0,0
20.05.2018 01:00:00 10,6 10,4 10,5 15,0 15,5 12,5 11 6 14 8 NE 0,0
20.05.2018 00:00:00 8,9 8,6 8,4 15,3 15,7 12,5 11 6 14 8 NNE 0,0
19.05.2018 23:00:00 9,0 8,2 8,8 15,7 15,7 12,5 7 4 14 8 NE 0,0
19.05.2018 22:00:00 11,1 9,3 9,9 16,3 15,8 12,5 7 4 11 6 NE 0,0
19.05.2018 21:00:00 12,6 10,7 12,7 16,9 15,8 12,5 7 4 11 6 N 0,0
19.05.2018 20:00:00 14,5 11,4 14,9 17,3 15,7 12,5 11 6 18 10 NNW 0,0
19.05.2018 19:00:00 14,7 11,4 15,3 17,8 15,5 12,4 14 8 22 12 N 0,0
19.05.2018 18:00:00 15,8 9,8 17,3 18,2 15,3 12,4 4 2 11 6 NNE 0,0
19.05.2018 17:00:00 16,3 9,8 18,2 18,0 15,1 12,5 7 4 14 8 NNW 0,0
19.05.2018 16:00:00 14,9 9,7 16,3 18,2 14,8 12,4 11 6 18 10 N 0,0
19.05.2018 15:00:00 16,0 8,0 19,7 17,3 14,5 12,4 7 4 18 10 SW 0,0
19.05.2018 14:00:00 14,8 7,7 18,2 16,1 14,3 12,4 7 4 18 10 SW 0,0
19.05.2018 13:00:00 13,6 7,9 16,8 14,7 14,2 12,4 7 4 18 10 WSW 0,0
19.05.2018 12:00:00 11,2 8,8 12,0 14,3 14,2 12,4 7 4 18 10 S 0,0
19.05.2018 11:00:00 11,9 8,8 12,8 14,1 14,2 12,4 7 4 11 6 S 0,0
19.05.2018 10:00:00 10,9 8,8 12,1 13,8 14,2 12,4 4 2 4 2 SSE 0,0
19.05.2018 09:00:00 10,8 9,1 11,3 13,7 14,2 12,4 4 2 11 6 W 0,0
19.05.2018 08:00:00 10,2 9,0 10,7 13,6 14,2 12,4 7 4 14 8 W 0,0
19.05.2018 07:00:00 10,0 9,1 10,4 13,5 14,3 12,4 11 6 14 8 WSW 0,0
19.05.2018 06:00:00 9,7 9,0 10,0 13,6 14,3 12,4 7 4 11 6 WSW 0,0
19.05.2018 05:00:00 9,6 9,0 9,8 13,6 14,4 12,4 11 6 14 8 WSW 0,0
19.05.2018 04:00:00 9,7 8,9 9,9 13,7 14,5 12,4 11 6 14 8 WSW 0,0
19.05.2018 03:00:00 9,7 8,9 10,0 13,8 14,5 12,4 11 6 11 6 WSW 0,0
19.05.2018 02:00:00 10,0 8,4 10,3 13,9 14,6 12,4 7 4 14 8 W 0,0
19.05.2018 01:00:00 10,0 8,3 10,3 14,0 14,7 12,4 11 6 14 8 W 0,0
19.05.2018 00:00:00 10,2 8,1 10,4 14,1 14,7 12,4 11 6 18 10 W 0,0
18.05.2018 23:00:00 10,3 8,0 10,5 14,3 14,8 12,4 11 6 18 10 W 0,0
18.05.2018 22:00:00 10,3 7,0 10,3 14,5 14,9 12,4 11 6 18 10 W 0,0
18.05.2018 21:00:00 10,4 7,0 10,6 14,7 14,9 12,4 11 6 22 12 W 0,0
18.05.2018 20:00:00 10,5 7,1 10,8 15,0 14,9 12,4 14 8 25 14 W 0,0
18.05.2018 19:00:00 10,7 6,7 11,1 15,3 14,9 12,4 18 10 25 14 W 0,0
18.05.2018 18:00:00 11,2 6,8 11,7 15,5 14,9 12,4 18 10 25 14 W 0,0
18.05.2018 17:00:00 11,7 7,0 12,5 15,7 14,8 12,4 22 12 29 16 W 0,0
18.05.2018 16:00:00 12,2 6,5 12,5 15,7 14,7 12,4 18 10 32 18 WNW 0,0
18.05.2018 15:00:00 12,1 6,6 13,4 15,7 14,6 12,4 18 10 29 16 WNW 0,0
18.05.2018 14:00:00 12,8 7,4 13,1 15,4 14,4 12,4 22 12 32 18 WNW 0,0
18.05.2018 13:00:00 12,3 6,3 13,4 15,0 14,3 12,4 22 12 32 18 WNW 0,0
18.05.2018 12:00:00 11,9 6,3 13,2 14,5 14,3 12,4 22 12 32 18 NW 0,0
18.05.2018 11:00:00 11,7 6,4 11,6 14,0 14,2 12,4 22 12 32 18 WNW 0,0
18.05.2018 10:00:00 10,5 5,8 11,1 13,6 14,3 12,4 22 12 29 16 WNW 0,0
18.05.2018 09:00:00 9,8 5,4 10,2 13,4 14,3 12,3 22 12 29 16 WNW 0,0
18.05.2018 08:00:00 9,6 6,2 9,8 13,3 14,4 12,3 14 8 22 12 WNW 0,0
18.05.2018 07:00:00 8,8 6,1 9,0 13,2 14,4 12,3 14 8 25 14 WNW 0,0
18.05.2018 06:00:00 8,5 5,5 8,7 13,3 14,5 12,3 18 10 25 14 WNW 0,0
18.05.2018 05:00:00 8,6 5,4 8,7 13,4 14,6 12,3 18 10 25 14 WNW 0,0
18.05.2018 04:00:00 8,8 5,7 8,9 13,5 14,7 12,3 14 8 29 16 WNW 0,0
18.05.2018 03:00:00 9,0 5,4 9,1 13,6 14,8 12,3 18 10 25 14 NW 0,0
18.05.2018 02:00:00 8,9 6,1 9,1 13,8 14,9 12,3 18 10 25 14 NW 0,0
18.05.2018 01:00:00 9,2 6,2 9,2 13,9 15,0 12,3 16 9 - - NW -
18.05.2018 00:00:00 9,3 6,2 9,4 14,0 15,0 12,3 18 10 29 16 NW 0,0
17.05.2018 23:00:00 9,3 6,4 9,4 14,2 15,1 12,3 18 10 36 19 NNW 0,0
17.05.2018 22:00:00 9,4 6,5 9,6 14,4 15,2 12,3 25 14 36 19 NW 0,0

tt = Température de l'air
td = dewpoint
tt 5cm = Température de l'air 5cm
tt -5cm = Température de l'air -5cm
tt -20cm = Température de l'air -20cm
tt -100cm = Température de l'air -100cm
ff = Vitesse du vent
fx = gusts
dd = Direction du vent
rr = Quantités de précipitations

stations d'obs. à proximité